Time;durP1;ratioP1;P1;durP2;ratioP2;P2;SDS_P1;SDS_P2;PMS_P1;PMS_P2;Temp;Humidity;BMP_temperature;BMP_pressure;BME280_temperature;BME280_humidity;BME280_pressure;Samples;Min_cycle;Max_cycle;Signal;HPM_P1;HPM_P2
2022/06/22 00:01:03;;;;;;;23.33;7.00;;;;;;;;;;5037172;28;20049;-67
2022/06/22 00:03:30;;;;;;;29.60;8.10;;;;;;;;;;5037745;28;20065;-69
2022/06/22 00:05:56;;;;;;;23.73;6.88;;;;;;;;;;5037442;28;20458;-68
2022/06/22 00:08:27;;;;;;;20.15;7.07;;;;;;;;;;5038049;28;20037;-72
2022/06/22 00:11:03;;;;;;;24.73;7.57;;;;;;;;;;5033594;28;20095;-70
2022/06/22 00:13:32;;;;;;;22.52;6.70;;;;;;;;;;5042501;28;20179;-67
2022/06/22 00:16:16;;;;;;;24.35;6.20;;;;;;;;;;5033659;28;20075;-68
2022/06/22 00:18:45;;;;;;;17.23;5.70;;;;;;;;;;5033173;28;20045;-73
2022/06/22 00:21:19;;;;;;;21.45;5.82;;;;;;;;;;5033813;28;20052;-70
2022/06/22 00:23:49;;;;;;;22.13;5.53;;;;;;;;;;5037232;28;20090;-67
2022/06/22 00:26:34;;;;;;;22.67;5.75;;;;;;;;;;5034002;28;20095;-70
2022/06/22 00:29:09;;;;;;;18.10;6.07;;;;;;;;;;5028516;28;20056;-67
2022/06/22 00:31:50;;;;;;;27.27;6.40;;;;;;;;;;5031381;28;20129;-68
2022/06/22 00:34:22;;;;;;;18.30;6.43;;;;;;;;;;5032016;28;20049;-68
2022/06/22 00:36:57;;;;;;;23.20;6.55;;;;;;;;;;5034847;28;20059;-66
2022/06/22 00:39:29;;;;;;;28.23;6.95;;;;;;;;;;5034525;28;20498;-66
2022/06/22 00:41:55;;;;;;;29.88;6.00;;;;;;;;;;5035738;28;20053;-70
2022/06/22 00:44:24;;;;;;;17.27;5.97;;;;;;;;;;5035442;28;20044;-66
2022/06/22 00:47:10;;;;;;;19.25;6.10;;;;;;;;;;5033946;28;20126;-66
2022/06/22 00:49:42;;;;;;;25.25;6.05;;;;;;;;;;5033566;28;21330;-67
2022/06/22 00:52:09;;;;;;;23.67;6.57;;;;;;;;;;5042996;28;20068;-66
2022/06/22 00:54:36;;;;;;;17.88;5.72;;;;;;;;;;5042453;28;20557;-65
2022/06/22 00:57:04;;;;;;;21.95;6.05;;;;;;;;;;5037945;28;20446;-65
2022/06/22 00:59:40;;;;;;;21.90;6.03;;;;;;;;;;5037685;28;20103;-70
2022/06/22 01:02:09;;;;;;;19.02;5.80;;;;;;;;;;5039612;28;20060;-67
2022/06/22 01:04:40;;;;;;;20.58;5.75;;;;;;;;;;5037626;28;20072;-70
2022/06/22 01:07:27;;;;;;;16.92;5.68;;;;;;;;;;5035018;28;20135;-68
2022/06/22 01:10:02;;;;;;;20.00;5.18;;;;;;;;;;5038287;28;20057;-65
2022/06/22 01:12:33;;;;;;;25.58;5.25;;;;;;;;;;5040298;28;20049;-66
2022/06/22 01:14:59;;;;;;;16.65;5.38;;;;;;;;;;5036523;28;20061;-66
2022/06/22 01:17:34;;;;;;;17.08;5.57;;;;;;;;;;5033662;28;20132;-71
2022/06/22 01:20:13;;;;;;;16.95;5.07;;;;;;;;;;5037915;28;20489;-68
2022/06/22 01:22:48;;;;;;;21.05;4.75;;;;;;;;;;5036305;28;20033;-68
2022/06/22 01:25:46;;;;;;;21.48;5.63;;;;;;;;;;5037380;28;20051;-71
2022/06/22 01:28:14;;;;;;;18.83;5.72;;;;;;;;;;5025527;28;20179;-69
2022/06/22 01:30:44;;;;;;;26.70;6.40;;;;;;;;;;5037771;28;20064;-69
2022/06/22 01:33:24;;;;;;;26.60;6.90;;;;;;;;;;5042319;28;20124;-71
2022/06/22 01:35:59;;;;;;;23.02;6.82;;;;;;;;;;5038045;28;20046;-67
2022/06/22 01:38:28;;;;;;;23.55;7.20;;;;;;;;;;5041358;28;20053;-65
2022/06/22 01:41:12;;;;;;;24.17;6.78;;;;;;;;;;5040941;28;20053;-66
2022/06/22 01:43:48;;;;;;;21.27;6.75;;;;;;;;;;5038731;28;20041;-67
2022/06/22 01:46:32;;;;;;;22.80;5.68;;;;;;;;;;5032647;28;20052;-71
2022/06/22 01:49:15;;;;;;;17.90;5.63;;;;;;;;;;5036430;28;20507;-70
2022/06/22 01:51:47;;;;;;;19.00;6.23;;;;;;;;;;5041000;28;20525;-64
2022/06/22 01:54:25;;;;;;;24.50;6.90;;;;;;;;;;5042840;28;20310;-66
2022/06/22 01:57:08;;;;;;;23.17;6.13;;;;;;;;;;5037565;28;20061;-67
2022/06/22 01:59:51;;;;;;;21.85;5.95;;;;;;;;;;5038711;28;20044;-67
2022/06/22 02:02:40;;;;;;;19.08;5.68;;;;;;;;;;5037125;28;20130;-69
2022/06/22 02:05:15;;;;;;;23.75;6.50;;;;;;;;;;5038367;28;20139;-68
2022/06/22 02:07:56;;;;;;;23.10;6.25;;;;;;;;;;5039201;28;20049;-67
2022/06/22 02:10:47;;;;;;;22.52;6.78;;;;;;;;;;5036019;28;20110;-70
2022/06/22 02:13:41;;;;;;;25.90;6.65;;;;;;;;;;5039834;28;20055;-64
2022/06/22 02:16:21;;;;;;;24.65;6.47;;;;;;;;;;5035745;28;20049;-71
2022/06/22 02:19:09;;;;;;;22.05;6.60;;;;;;;;;;5036129;28;20450;-69
2022/06/22 02:21:45;;;;;;;23.67;7.50;;;;;;;;;;5039222;28;20054;-66
2022/06/22 02:24:26;;;;;;;27.98;6.75;;;;;;;;;;5039239;28;20509;-68
2022/06/22 02:26:57;;;;;;;21.75;6.80;;;;;;;;;;5037395;28;20413;-66
2022/06/22 02:29:27;;;;;;;27.48;7.03;;;;;;;;;;5034043;28;20041;-66
2022/06/22 02:31:57;;;;;;;26.02;7.15;;;;;;;;;;5040390;28;20072;-68
2022/06/22 02:34:23;;;;;;;23.25;7.53;;;;;;;;;;5035885;28;20114;-65
2022/06/22 02:36:53;;;;;;;21.67;7.40;;;;;;;;;;5036213;28;20055;-65
2022/06/22 02:39:22;;;;;;;17.85;6.07;;;;;;;;;;5034585;28;20041;-69
2022/06/22 02:44:39;;;;;;;24.00;7.50;;;;;;;;;;5037750;28;20045;-70
2022/06/22 02:47:31;;;;;;;23.98;6.57;;;;;;;;;;5033980;28;20510;-69
2022/06/22 02:50:19;;;;;;;22.88;6.43;;;;;;;;;;5036391;28;20136;-67
2022/06/22 02:52:52;;;;;;;22.75;7.47;;;;;;;;;;5037891;28;20052;-65
2022/06/22 02:55:25;;;;;;;21.60;6.60;;;;;;;;;;5035794;28;20487;-68
2022/06/22 02:57:53;;;;;;;28.27;7.70;;;;;;;;;;5040809;28;20048;-65
2022/06/22 03:00:29;;;;;;;20.83;6.53;;;;;;;;;;5036156;28;20538;-65
2022/06/22 03:03:16;;;;;;;22.52;6.38;;;;;;;;;;5037735;28;20049;-65
2022/06/22 03:05:45;;;;;;;19.15;6.47;;;;;;;;;;5038204;28;20056;-70
2022/06/22 03:08:13;;;;;;;23.05;6.57;;;;;;;;;;5035466;28;20599;-66
2022/06/22 03:10:52;;;;;;;21.52;6.35;;;;;;;;;;5035450;28;20037;-74
2022/06/22 03:13:24;;;;;;;18.42;6.28;;;;;;;;;;5032925;28;20049;-73
2022/06/22 03:15:51;;;;;;;29.63;6.97;;;;;;;;;;5032783;28;20056;-67
2022/06/22 03:18:24;;;;;;;19.30;6.53;;;;;;;;;;5032119;28;20037;-73
2022/06/22 03:21:11;;;;;;;20.25;6.28;;;;;;;;;;5032533;28;20068;-68
2022/06/22 03:23:47;;;;;;;23.15;6.97;;;;;;;;;;5033349;28;20063;-68
2022/06/22 03:26:19;;;;;;;26.67;7.30;;;;;;;;;;5036545;28;20056;-69
2022/06/22 03:29:00;;;;;;;21.80;6.82;;;;;;;;;;5036287;28;20418;-69
2022/06/22 03:31:51;;;;;;;31.85;7.43;;;;;;;;;;5033365;28;20052;-65
2022/06/22 03:34:22;;;;;;;17.70;6.18;;;;;;;;;;5034317;28;20088;-67
2022/06/22 03:36:52;;;;;;;25.55;6.43;;;;;;;;;;5035885;28;20053;-71
2022/06/22 03:39:25;;;;;;;23.58;6.32;;;;;;;;;;5030956;28;20423;-70
2022/06/22 03:42:12;;;;;;;23.40;6.47;;;;;;;;;;5036683;28;20076;-67
2022/06/22 03:44:54;;;;;;;24.45;6.78;;;;;;;;;;5036509;28;20045;-69
2022/06/22 03:47:28;;;;;;;20.48;6.10;;;;;;;;;;5037315;28;20696;-68
2022/06/22 03:50:02;;;;;;;25.05;6.75;;;;;;;;;;5031110;28;20092;-64
2022/06/22 03:52:33;;;;;;;23.85;6.55;;;;;;;;;;5039483;28;20057;-64
2022/06/22 03:55:24;;;;;;;18.90;6.32;;;;;;;;;;5037194;28;20587;-67
2022/06/22 03:57:53;;;;;;;21.35;6.88;;;;;;;;;;5037572;28;20076;-65
2022/06/22 04:00:19;;;;;;;24.65;6.78;;;;;;;;;;5034290;28;20049;-66
2022/06/22 04:02:45;;;;;;;26.75;6.53;;;;;;;;;;5035174;28;20051;-68
2022/06/22 04:05:18;;;;;;;25.98;6.63;;;;;;;;;;5031135;28;20056;-72
2022/06/22 04:07:46;;;;;;;22.40;5.93;;;;;;;;;;5034256;28;20154;-68
2022/06/22 04:10:23;;;;;;;22.33;6.55;;;;;;;;;;5029968;28;20065;-69
2022/06/22 04:12:51;;;;;;;21.73;6.57;;;;;;;;;;5033810;28;20044;-70
2022/06/22 04:15:23;;;;;;;22.48;6.53;;;;;;;;;;5036616;28;20433;-68
2022/06/22 04:17:54;;;;;;;21.27;5.65;;;;;;;;;;5032343;28;20118;-71
2022/06/22 04:20:22;;;;;;;21.20;6.30;;;;;;;;;;5032778;28;20144;-69
2022/06/22 04:22:54;;;;;;;16.92;5.28;;;;;;;;;;5031897;28;20056;-69
2022/06/22 04:25:29;;;;;;;17.38;4.97;;;;;;;;;;5035242;28;20136;-71
2022/06/22 04:27:58;;;;;;;20.35;5.00;;;;;;;;;;5039970;28;20049;-70
2022/06/22 04:30:31;;;;;;;22.75;5.25;;;;;;;;;;5032532;28;20068;-67
2022/06/22 04:33:28;;;;;;;21.95;4.57;;;;;;;;;;5037660;28;22277;-67
2022/06/22 04:36:01;;;;;;;19.95;5.30;;;;;;;;;;5036957;28;20486;-69
2022/06/22 04:38:34;;;;;;;21.88;4.53;;;;;;;;;;5036728;28;20053;-66
2022/06/22 04:41:39;;;;;;;13.68;4.10;;;;;;;;;;5035264;28;20167;-68
2022/06/22 04:44:12;;;;;;;16.02;4.30;;;;;;;;;;5038031;28;20056;-68
2022/06/22 04:46:42;;;;;;;19.25;5.00;;;;;;;;;;5038481;28;20067;-69
2022/06/22 04:49:25;;;;;;;20.80;4.97;;;;;;;;;;5043341;28;20083;-71
2022/06/22 04:51:59;;;;;;;21.13;4.63;;;;;;;;;;5039292;28;20521;-67
2022/06/22 04:54:28;;;;;;;;;;;;;;;;;;5041744;28;20128;-68
2022/06/22 04:56:55;;;;;;;20.13;5.10;;;;;;;;;;5042376;28;20446;-69
2022/06/22 04:59:22;;;;;;;25.48;4.78;;;;;;;;;;5037876;28;20067;-69
2022/06/22 05:01:54;;;;;;;21.50;4.45;;;;;;;;;;5036965;28;20502;-68
2022/06/22 05:04:42;;;;;;;19.25;4.07;;;;;;;;;;5034375;28;20072;-68
2022/06/22 05:07:27;;;;;;;18.20;4.10;;;;;;;;;;5035328;28;20041;-69
2022/06/22 05:10:32;;;;;;;22.20;4.45;;;;;;;;;;5035546;28;20045;-70
2022/06/22 05:13:02;;;;;;;25.25;4.55;;;;;;;;;;5035450;28;20061;-70
2022/06/22 05:15:36;;;;;;;18.80;4.68;;;;;;;;;;5034861;28;20168;-69
2022/06/22 05:18:12;;;;;;;19.42;4.13;;;;;;;;;;5037564;28;20595;-68
2022/06/22 05:20:51;;;;;;;17.98;4.05;;;;;;;;;;5038532;28;20051;-69
2022/06/22 05:23:21;;;;;;;16.92;4.05;;;;;;;;;;5037178;28;20135;-67
2022/06/22 05:25:52;;;;;;;15.32;4.80;;;;;;;;;;5034570;28;20435;-69
2022/06/22 05:28:27;;;;;;;15.70;4.78;;;;;;;;;;5041713;28;20045;-69
2022/06/22 05:31:01;;;;;;;17.33;4.18;;;;;;;;;;5033929;28;20050;-69
2022/06/22 05:33:27;;;;;;;16.25;3.97;;;;;;;;;;5038377;28;20079;-69
2022/06/22 05:36:05;;;;;;;10.68;3.40;;;;;;;;;;5039813;28;20045;-68
2022/06/22 05:38:34;;;;;;;14.93;3.10;;;;;;;;;;5039984;28;20059;-69
2022/06/22 05:41:04;;;;;;;15.63;2.92;;;;;;;;;;5032733;28;20052;-67
2022/06/22 05:43:32;;;;;;;16.30;3.80;;;;;;;;;;5039140;28;20048;-72
2022/06/22 05:46:02;;;;;;;12.32;3.25;;;;;;;;;;5036912;28;20060;-67
2022/06/22 05:48:31;;;;;;;16.48;2.63;;;;;;;;;;5040116;28;20090;-69
2022/06/22 05:51:06;;;;;;;19.50;3.13;;;;;;;;;;5036458;28;20087;-68
2022/06/22 05:53:46;;;;;;;12.77;2.95;;;;;;;;;;5041074;28;20091;-71
2022/06/22 05:56:21;;;;;;;15.93;3.40;;;;;;;;;;5036837;28;20122;-69
2022/06/22 05:58:58;;;;;;;14.18;2.78;;;;;;;;;;5037008;28;20053;-71
2022/06/22 06:01:45;;;;;;;10.10;2.83;;;;;;;;;;5035244;28;20053;-69
2022/06/22 06:04:38;;;;;;;14.27;3.38;;;;;;;;;;5036269;28;20060;-70
2022/06/22 06:07:19;;;;;;;11.82;2.47;;;;;;;;;;5033514;28;20041;-68
2022/06/22 06:09:46;;;;;;;9.48;2.33;;;;;;;;;;5034773;28;20045;-67
2022/06/22 06:12:19;;;;;;;11.30;2.40;;;;;;;;;;5038684;28;20056;-68
2022/06/22 06:14:49;;;;;;;11.18;2.55;;;;;;;;;;5037726;28;20087;-70
2022/06/22 06:17:29;;;;;;;10.60;2.53;;;;;;;;;;5033853;28;20095;-69
2022/06/22 06:19:57;;;;;;;14.80;3.50;;;;;;;;;;5035595;28;20059;-69
2022/06/22 06:22:25;;;;;;;11.82;2.78;;;;;;;;;;5038904;28;20410;-69
2022/06/22 06:28:11;;;;;;;9.82;2.13;;;;;;;;;;5037552;28;20444;-69
2022/06/22 06:30:46;;;;;;;11.75;2.50;;;;;;;;;;5035882;28;20437;-73
2022/06/22 06:33:18;;;;;;;11.15;2.38;;;;;;;;;;5033077;28;20052;-72
2022/06/22 06:35:48;;;;;;;9.38;2.33;;;;;;;;;;5041661;28;20297;-72
2022/06/22 06:38:36;;;;;;;8.95;2.20;;;;;;;;;;5038619;28;20053;-70
2022/06/22 06:41:17;;;;;;;5.93;1.77;;;;;;;;;;5036925;28;20450;-68
2022/06/22 06:43:54;;;;;;;11.52;1.90;;;;;;;;;;5035055;28;20080;-71
2022/06/22 06:46:38;;;;;;;8.45;2.28;;;;;;;;;;5033964;28;20406;-72
2022/06/22 06:49:38;;;;;;;12.02;2.33;;;;;;;;;;5038604;28;20146;-71
2022/06/22 06:52:19;;;;;;;6.18;2.10;;;;;;;;;;5034036;28;20442;-68
2022/06/22 06:54:56;;;;;;;8.15;2.20;;;;;;;;;;5035311;28;20037;-70
2022/06/22 06:57:22;;;;;;;13.85;2.33;;;;;;;;;;5035485;28;20051;-70
2022/06/22 06:59:58;;;;;;;11.85;2.10;;;;;;;;;;5037119;28;20056;-73
2022/06/22 07:02:32;;;;;;;7.90;1.90;;;;;;;;;;5037231;28;20057;-73
2022/06/22 07:05:00;;;;;;;13.20;2.30;;;;;;;;;;5037019;28;20144;-74
2022/06/22 07:07:48;;;;;;;10.27;2.05;;;;;;;;;;5038518;28;20045;-75
2022/06/22 07:10:19;;;;;;;9.90;1.98;;;;;;;;;;5037958;28;20410;-78
2022/06/22 07:12:51;;;;;;;12.00;2.03;;;;;;;;;;5037655;28;20096;-72
2022/06/22 07:15:22;;;;;;;11.60;2.13;;;;;;;;;;5035782;28;21454;-73
2022/06/22 07:17:53;;;;;;;7.47;2.03;;;;;;;;;;5028290;28;20584;-75
2022/06/22 07:20:28;;;;;;;11.18;2.40;;;;;;;;;;5028285;28;20500;-74
2022/06/22 07:23:01;;;;;;;11.50;1.80;;;;;;;;;;5031672;28;20518;-78
2022/06/22 07:25:40;;;;;;;6.72;1.90;;;;;;;;;;5031406;28;20057;-73
2022/06/22 07:28:33;;;;;;;9.50;2.47;;;;;;;;;;5033578;28;20069;-76
2022/06/22 07:31:15;;;;;;;8.13;2.03;;;;;;;;;;5038559;28;20041;-76
2022/06/22 07:33:50;;;;;;;10.07;1.80;;;;;;;;;;5031415;28;20220;-77
2022/06/22 07:36:56;;;;;;;9.63;1.70;;;;;;;;;;5030684;28;20532;-73
2022/06/22 07:39:46;;;;;;;8.00;1.80;;;;;;;;;;5043951;28;20091;-75
2022/06/22 07:42:13;;;;;;;15.68;2.25;;;;;;;;;;5041486;28;20140;-77
2022/06/22 07:44:41;;;;;;;9.10;2.20;;;;;;;;;;5040166;28;20053;-70
2022/06/22 07:47:17;;;;;;;7.43;1.60;;;;;;;;;;5036394;28;20048;-72
2022/06/22 07:50:06;;;;;;;10.75;1.65;;;;;;;;;;5036264;28;20108;-75
2022/06/22 07:52:44;;;;;;;9.30;1.90;;;;;;;;;;5044441;28;20044;-74
2022/06/22 07:55:21;;;;;;;7.70;1.50;;;;;;;;;;5037039;28;20052;-71
2022/06/22 07:57:53;;;;;;;9.85;1.80;;;;;;;;;;5026549;28;20157;-73
2022/06/22 08:00:22;;;;;;;8.48;1.65;;;;;;;;;;5038091;28;20073;-74
2022/06/22 08:02:58;;;;;;;7.25;1.75;;;;;;;;;;5037623;28;20052;-73
2022/06/22 08:05:28;;;;;;;5.35;1.60;;;;;;;;;;5044517;28;20573;-73
2022/06/22 08:08:02;;;;;;;5.05;1.40;;;;;;;;;;5043103;28;20114;-74
2022/06/22 08:10:28;;;;;;;;;;;;;;;;;;5038338;28;20053;-71
2022/06/22 08:13:17;;;;;;;7.28;1.60;;;;;;;;;;5037413;28;19943;-74
2022/06/22 08:15:49;;;;;;;8.10;1.92;;;;;;;;;;5039080;28;20538;-76
2022/06/22 08:18:16;;;;;;;7.60;1.73;;;;;;;;;;5041590;28;20068;-73
2022/06/22 08:20:44;;;;;;;4.57;1.63;;;;;;;;;;5040664;28;20111;-73
2022/06/22 08:23:22;;;;;;;9.30;1.55;;;;;;;;;;5039510;28;20078;-74
2022/06/22 08:25:50;;;;;;;7.60;1.63;;;;;;;;;;5048774;28;20147;-75
2022/06/22 08:28:20;;;;;;;5.80;1.67;;;;;;;;;;5034992;28;20037;-66
2022/06/22 08:30:49;;;;;;;8.68;1.60;;;;;;;;;;5042500;28;20042;-71
2022/06/22 08:33:22;;;;;;;3.20;1.40;;;;;;;;;;5037282;28;20490;-74
2022/06/22 08:35:52;;;;;;;5.32;1.60;;;;;;;;;;5053255;28;20068;-72
2022/06/22 08:38:29;;;;;;;14.60;1.55;;;;;;;;;;5041881;28;20088;-80
2022/06/22 08:41:01;;;;;;;9.05;1.50;;;;;;;;;;5063112;28;20138;-75
2022/06/22 08:43:51;;;;;;;10.25;1.50;;;;;;;;;;5045692;28;20510;-77
2022/06/22 08:46:50;;;;;;;8.68;1.50;;;;;;;;;;5048707;28;20124;-72
2022/06/22 08:49:58;;;;;;;8.13;1.77;;;;;;;;;;5033484;28;20048;-72
2022/06/22 08:52:46;;;;;;;10.18;1.67;;;;;;;;;;5041573;28;20048;-76
2022/06/22 08:55:39;;;;;;;5.80;1.30;;;;;;;;;;5044336;28;20053;-72
2022/06/22 08:58:25;;;;;;;11.13;1.40;;;;;;;;;;5040102;28;20064;-73
2022/06/22 09:01:04;;;;;;;8.02;1.35;;;;;;;;;;5042078;28;20108;-72
2022/06/22 09:03:30;;;;;;;4.38;1.23;;;;;;;;;;5040764;28;20045;-75
2022/06/22 09:06:30;;;;;;;10.48;1.60;;;;;;;;;;5044759;28;20057;-75
2022/06/22 09:09:04;;;;;;;7.32;1.40;;;;;;;;;;5040954;28;20052;-72
2022/06/22 09:12:04;;;;;;;3.50;1.40;;;;;;;;;;5040249;28;20048;-74
2022/06/22 09:15:21;;;;;;;5.50;1.30;;;;;;;;;;5041439;28;20446;-74
2022/06/22 09:18:16;;;;;;;7.70;1.42;;;;;;;;;;5020687;28;20374;-72
2022/06/22 09:21:00;;;;;;;4.68;1.30;;;;;;;;;;5024812;28;20393;-74
2022/06/22 09:23:32;;;;;;;5.88;1.38;;;;;;;;;;5020291;28;20049;-75
2022/06/22 09:26:07;;;;;;;4.53;1.52;;;;;;;;;;5024814;28;20550;-77
2022/06/22 09:28:39;;;;;;;8.70;1.50;;;;;;;;;;5023152;28;20087;-72
2022/06/22 09:31:32;;;;;;;8.00;1.30;;;;;;;;;;5019369;28;20197;-72
2022/06/22 09:34:25;;;;;;;9.13;1.98;;;;;;;;;;5022997;28;20053;-76
2022/06/22 09:37:26;;;;;;;5.22;1.30;;;;;;;;;;5025996;28;20092;-72
2022/06/22 09:40:16;;;;;;;7.95;1.55;;;;;;;;;;5029959;28;20056;-73
2022/06/22 09:42:45;;;;;;;6.68;1.13;;;;;;;;;;5016706;28;20483;-73
2022/06/22 09:45:19;;;;;;;5.82;1.23;;;;;;;;;;5025153;28;20053;-72
2022/06/22 09:48:06;;;;;;;6.00;1.40;;;;;;;;;;5019711;28;20207;-71
2022/06/22 09:50:34;;;;;;;8.98;1.17;;;;;;;;;;5017448;28;20439;-71
2022/06/22 09:53:12;;;;;;;5.57;1.10;;;;;;;;;;5031931;28;20546;-74
2022/06/22 09:56:22;;;;;;;4.47;1.10;;;;;;;;;;5035632;28;20045;-73
2022/06/22 09:58:48;;;;;;;6.85;1.40;;;;;;;;;;5036420;28;20049;-83
2022/06/22 10:01:40;;;;;;;7.95;1.20;;;;;;;;;;5037444;28;20264;-79
2022/06/22 10:04:35;;;;;;;5.35;1.33;;;;;;;;;;5038672;28;20041;-71
2022/06/22 10:07:19;;;;;;;5.03;1.20;;;;;;;;;;5050388;28;20672;-74
2022/06/22 10:09:51;;;;;;;;;;;;;;;;;;5032633;28;20487;-72
2022/06/22 10:12:43;;;;;;;4.95;1.58;;;;;;;;;;5033434;28;19965;-72
2022/06/22 10:15:32;;;;;;;7.68;1.10;;;;;;;;;;5043442;28;20362;-74
2022/06/22 10:18:10;;;;;;;4.78;1.10;;;;;;;;;;5038703;28;20434;-74
2022/06/22 10:20:54;;;;;;;2.67;1.08;;;;;;;;;;5032925;28;20053;-75
2022/06/22 10:23:22;;;;;;;9.00;1.37;;;;;;;;;;5027340;28;20063;-76
2022/06/22 10:26:07;;;;;;;8.35;1.90;;;;;;;;;;5034535;28;20099;-74
2022/06/22 10:28:46;;;;;;;11.82;1.52;;;;;;;;;;5047831;28;20453;-77
2022/06/22 10:31:27;;;;;;;11.73;1.30;;;;;;;;;;5040631;28;20071;-77
2022/06/22 10:34:16;;;;;;;5.78;1.55;;;;;;;;;;5038655;28;20049;-74
2022/06/22 10:37:06;;;;;;;8.35;1.23;;;;;;;;;;5041959;28;20147;-77
2022/06/22 10:39:50;;;;;;;5.22;1.30;;;;;;;;;;5034102;28;20473;-72
2022/06/22 10:45:48;;;;;;;4.65;1.45;;;;;;;;;;5033807;28;20075;-73
2022/06/22 10:48:45;;;;;;;5.43;1.45;;;;;;;;;;5031594;28;20555;-77
2022/06/22 10:51:46;;;;;;;9.07;1.60;;;;;;;;;;5043897;28;20048;-77
2022/06/22 10:54:30;;;;;;;5.95;1.35;;;;;;;;;;5038260;28;20056;-72
2022/06/22 10:57:05;;;;;;;;;;;;;;;;;;5045863;28;20103;-70
2022/06/22 10:59:46;;;;;;;5.35;1.38;;;;;;;;;;5040273;28;19932;-76
2022/06/22 11:02:18;;;;;;;3.67;1.10;;;;;;;;;;5033840;28;20049;-77
2022/06/22 11:05:31;;;;;;;5.45;1.45;;;;;;;;;;5039545;28;20049;-73
2022/06/22 11:08:28;;;;;;;7.70;1.35;;;;;;;;;;5022976;28;20124;-75
2022/06/22 11:11:09;;;;;;;5.85;1.70;;;;;;;;;;5023160;28;20058;-74
2022/06/22 11:13:43;;;;;;;7.10;1.30;;;;;;;;;;5032683;28;20087;-73
2022/06/22 11:16:18;;;;;;;7.00;1.30;;;;;;;;;;5029806;28;20088;-74
2022/06/22 11:19:08;;;;;;;8.57;1.30;;;;;;;;;;5027527;28;20525;-75
2022/06/22 11:21:43;;;;;;;4.60;1.40;;;;;;;;;;5022685;28;20545;-75
2022/06/22 11:24:33;;;;;;;6.07;1.30;;;;;;;;;;5025692;28;20037;-78
2022/06/22 11:33:18;;;;;;;2.73;1.20;;;;;;;;;;4920376;29;20048;-78
2022/06/22 11:36:24;;;;;;;4.07;1.17;;;;;;;;;;4918338;29;20060;-76
2022/06/22 11:39:02;;;;;;;4.88;1.20;;;;;;;;;;4919737;29;20458;-74
2022/06/22 11:41:49;;;;;;;8.02;1.27;;;;;;;;;;4925300;29;20047;-77
2022/06/22 11:44:21;;;;;;;8.98;1.30;;;;;;;;;;4923888;29;20470;-79
2022/06/22 11:46:51;;;;;;;2.97;1.05;;;;;;;;;;4942329;29;20075;-74
2022/06/22 11:49:23;;;;;;;5.65;1.27;;;;;;;;;;4942171;29;20134;-76
2022/06/22 11:52:19;;;;;;;6.35;1.20;;;;;;;;;;4916546;29;20131;-75
2022/06/22 11:55:12;;;;;;;6.25;1.00;;;;;;;;;;4938194;29;20406;-79
2022/06/22 11:58:11;;;;;;;8.10;1.08;;;;;;;;;;4945668;29;20103;-80
2022/06/22 12:00:52;;;;;;;5.05;1.08;;;;;;;;;;4942674;29;20150;-73
2022/06/22 12:03:26;;;;;;;4.22;1.00;;;;;;;;;;4935685;29;20335;-74
2022/06/22 12:06:22;;;;;;;5.03;0.90;;;;;;;;;;4939156;28;20055;-71
2022/06/22 12:08:54;;;;;;;2.30;0.80;;;;;;;;;;5036714;28;20045;-70
2022/06/22 12:11:47;;;;;;;5.00;1.10;;;;;;;;;;5043430;28;20044;-74
2022/06/22 12:17:36;;;;;;;3.70;1.15;;;;;;;;;;5027657;28;20141;-75
2022/06/22 12:20:08;;;;;;;2.65;0.95;;;;;;;;;;5036901;28;20044;-72
2022/06/22 12:23:00;;;;;;;1.33;0.83;;;;;;;;;;5024105;28;20080;-71
2022/06/22 12:25:50;;;;;;;4.43;0.90;;;;;;;;;;5037059;28;20049;-74
2022/06/22 12:28:51;;;;;;;4.40;0.93;;;;;;;;;;5034909;28;20132;-74
2022/06/22 12:31:20;;;;;;;3.90;0.90;;;;;;;;;;5029260;28;20059;-75
2022/06/22 12:34:16;;;;;;;2.08;0.80;;;;;;;;;;5031764;28;20537;-72
2022/06/22 12:36:50;;;;;;;2.22;1.00;;;;;;;;;;5033200;28;20052;-71
2022/06/22 12:39:27;;;;;;;4.85;1.10;;;;;;;;;;5026184;28;20131;-71
2022/06/22 12:42:21;;;;;;;3.08;0.90;;;;;;;;;;5042870;28;20095;-73
2022/06/22 12:44:55;;;;;;;2.30;0.50;;;;;;;;;;5032538;28;20048;-70
2022/06/22 12:48:15;;;;;;;8.48;0.90;;;;;;;;;;5030850;28;20076;-74
2022/06/22 12:50:50;;;;;;;4.05;0.90;;;;;;;;;;5036783;28;20045;-70
2022/06/22 12:53:22;;;;;;;2.25;0.93;;;;;;;;;;5032890;28;20191;-71
2022/06/22 12:55:53;;;;;;;5.88;0.70;;;;;;;;;;5037919;28;20037;-71
2022/06/22 12:58:26;;;;;;;3.55;0.90;;;;;;;;;;5037955;28;20053;-71
2022/06/22 13:00:56;;;;;;;1.77;0.80;;;;;;;;;;5039586;28;20081;-70
2022/06/22 13:03:31;;;;;;;1.67;0.80;;;;;;;;;;5033947;28;20091;-74
2022/06/22 13:05:57;;;;;;;3.80;0.98;;;;;;;;;;5027888;28;20065;-72
2022/06/22 13:08:25;;;;;;;1.65;0.80;;;;;;;;;;5027973;28;20116;-72
2022/06/22 13:10:56;;;;;;;3.78;0.88;;;;;;;;;;5022790;28;20545;-70
2022/06/22 13:13:42;;;;;;;3.78;0.80;;;;;;;;;;5035425;28;20053;-71
2022/06/22 13:16:18;;;;;;;7.50;0.90;;;;;;;;;;5021043;28;20111;-72
2022/06/22 13:18:59;;;;;;;4.82;1.20;;;;;;;;;;5039682;28;20053;-75
2022/06/22 13:21:50;;;;;;;3.45;0.95;;;;;;;;;;5042411;28;20125;-73
2022/06/22 13:24:33;;;;;;;4.05;1.10;;;;;;;;;;5032899;28;20049;-73
2022/06/22 13:27:11;;;;;;;2.90;0.98;;;;;;;;;;5036145;28;20219;-72
2022/06/22 13:29:56;;;;;;;3.42;0.90;;;;;;;;;;5038625;28;20059;-71
2022/06/22 13:32:25;;;;;;;8.50;1.50;;;;;;;;;;5036584;28;20080;-73
2022/06/22 13:34:59;;;;;;;7.82;1.40;;;;;;;;;;5033386;28;20044;-72
2022/06/22 13:37:51;;;;;;;8.68;1.70;;;;;;;;;;5036262;28;20040;-77
2022/06/22 13:40:26;;;;;;;5.95;1.40;;;;;;;;;;5039943;28;20057;-73
2022/06/22 13:43:20;;;;;;;3.42;1.33;;;;;;;;;;5037652;28;20055;-74
2022/06/22 13:46:12;;;;;;;12.05;1.80;;;;;;;;;;5033990;28;20056;-75
2022/06/22 13:49:04;;;;;;;5.43;2.25;;;;;;;;;;5035905;28;20042;-71
2022/06/22 13:51:57;;;;;;;5.32;1.38;;;;;;;;;;5032800;28;20738;-74
2022/06/22 13:55:11;;;;;;;3.55;1.10;;;;;;;;;;5025014;28;20049;-73
2022/06/22 13:57:47;;;;;;;5.18;1.42;;;;;;;;;;5028941;28;20065;-71
2022/06/22 14:00:27;;;;;;;6.32;1.10;;;;;;;;;;5036863;28;20048;-72
2022/06/22 14:03:08;;;;;;;7.32;1.90;;;;;;;;;;5032729;28;20050;-71
2022/06/22 14:05:51;;;;;;;9.68;1.60;;;;;;;;;;5039377;28;20126;-73
2022/06/22 14:08:36;;;;;;;11.15;2.03;;;;;;;;;;5041180;28;20053;-73
2022/06/22 14:11:17;;;;;;;17.20;2.10;;;;;;;;;;5045528;28;20045;-74
2022/06/22 14:13:48;;;;;;;17.33;1.65;;;;;;;;;;5044646;28;20295;-73
2022/06/22 14:16:23;;;;;;;14.90;2.00;;;;;;;;;;5038649;28;20091;-76
2022/06/22 14:19:04;;;;;;;18.95;2.08;;;;;;;;;;5041024;28;20052;-69
2022/06/22 14:21:40;;;;;;;19.20;1.85;;;;;;;;;;5040671;28;20494;-76
2022/06/22 14:24:30;;;;;;;13.38;2.25;;;;;;;;;;5030507;28;20739;-74
2022/06/22 14:26:59;;;;;;;11.38;1.70;;;;;;;;;;5043018;28;20053;-76
2022/06/22 14:29:36;;;;;;;17.30;2.30;;;;;;;;;;5036584;28;20493;-72
2022/06/22 14:32:26;;;;;;;13.30;1.48;;;;;;;;;;5029814;28;20045;-79
2022/06/22 14:34:55;;;;;;;5.95;1.45;;;;;;;;;;5045420;28;20065;-75
2022/06/22 14:37:28;;;;;;;13.80;1.95;;;;;;;;;;5047225;28;20496;-75
2022/06/22 14:40:19;;;;;;;8.07;1.40;;;;;;;;;;5043383;28;20049;-73
2022/06/22 14:42:55;;;;;;;13.93;1.75;;;;;;;;;;5039400;28;20103;-76
2022/06/22 14:45:33;;;;;;;10.00;1.80;;;;;;;;;;5033190;28;20060;-76
2022/06/22 14:48:08;;;;;;;7.75;1.50;;;;;;;;;;5045904;28;20056;-72
2022/06/22 14:51:16;;;;;;;6.93;1.35;;;;;;;;;;5039462;28;20135;-76
2022/06/22 14:53:47;;;;;;;7.32;1.65;;;;;;;;;;5032888;28;20080;-74
2022/06/22 14:56:26;;;;;;;11.77;1.83;;;;;;;;;;5044714;28;20052;-77
2022/06/22 14:59:13;;;;;;;10.90;1.70;;;;;;;;;;5047012;28;20057;-74
2022/06/22 15:01:51;;;;;;;10.10;2.00;;;;;;;;;;5039494;28;20049;-79
2022/06/22 15:04:46;;;;;;;15.05;2.20;;;;;;;;;;5032759;28;20254;-71
2022/06/22 15:07:21;;;;;;;13.90;1.95;;;;;;;;;;5027316;28;20053;-65
2022/06/22 15:10:05;;;;;;;10.43;1.83;;;;;;;;;;5040457;28;20430;-73
2022/06/22 15:12:59;;;;;;;12.57;2.00;;;;;;;;;;5030283;28;20053;-71
2022/06/22 15:15:48;;;;;;;10.43;2.15;;;;;;;;;;5027927;28;20054;-69
2022/06/22 15:18:48;;;;;;;8.77;1.70;;;;;;;;;;5033183;28;20736;-66
2022/06/22 15:21:29;;;;;;;10.77;2.15;;;;;;;;;;5033071;28;20045;-77
2022/06/22 15:24:04;;;;;;;11.35;1.90;;;;;;;;;;5034164;28;20111;-66
2022/06/22 15:26:37;;;;;;;16.40;2.08;;;;;;;;;;5021203;28;20055;-75
2022/06/22 15:29:28;;;;;;;7.97;1.98;;;;;;;;;;5031080;28;20057;-68
2022/06/22 15:32:16;;;;;;;6.30;2.05;;;;;;;;;;5030788;28;20483;-67
2022/06/22 15:34:57;;;;;;;9.55;2.13;;;;;;;;;;5034529;28;20049;-72
2022/06/22 15:37:54;;;;;;;18.98;2.05;;;;;;;;;;5032603;28;20146;-68
2022/06/22 15:40:49;;;;;;;14.05;2.42;;;;;;;;;;5035299;28;20052;-67
2022/06/22 15:43:23;;;;;;;15.27;2.20;;;;;;;;;;5033710;28;20183;-67
2022/06/22 15:46:19;;;;;;;12.90;2.47;;;;;;;;;;5036917;28;20064;-67
2022/06/22 15:49:14;;;;;;;12.43;2.10;;;;;;;;;;5036975;28;20489;-67
2022/06/22 15:52:03;;;;;;;13.60;2.40;;;;;;;;;;5029632;28;20094;-69
2022/06/22 15:54:53;;;;;;;16.45;2.75;;;;;;;;;;5027281;28;20059;-75
2022/06/22 15:57:53;;;;;;;16.17;2.50;;;;;;;;;;5039839;28;20434;-68
2022/06/22 16:00:31;;;;;;;8.13;1.88;;;;;;;;;;5035690;28;20046;-67
2022/06/22 16:03:13;;;;;;;11.15;2.10;;;;;;;;;;5035231;28;20069;-67
2022/06/22 16:05:44;;;;;;;15.25;2.05;;;;;;;;;;5032169;28;20460;-67